Time;durP1;ratioP1;P1;durP2;ratioP2;P2;SDS_P1;SDS_P2;PMS_P1;PMS_P2;Temp;Humidity;BMP_temperature;BMP_pressure;BME280_temperature;BME280_humidity;BME280_pressure;Samples;Min_cycle;Max_cycle;Signal;HPM_P1;HPM_P2
2023/06/25 00:00:17;;;;;;;18.70;9.30;;;;;;;-128.00;-1.00;-1.00;18462;296;7504597;-32
2023/06/25 00:02:43;;;;;;;11.60;8.50;;;;;;;-128.00;-1.00;-1.00;18443;287;7504926;-32
2023/06/25 00:05:09;;;;;;;15.80;9.80;;;;;;;-128.00;-1.00;-1.00;18462;296;7505789;-31
2023/06/25 00:07:35;;;;;;;25.10;11.20;;;;;;;-128.00;-1.00;-1.00;18882;295;7504606;-34
2023/06/25 00:10:02;;;;;;;10.10;8.10;;;;;;;-128.00;-1.00;-1.00;18896;296;7506509;-35
2023/06/25 00:12:28;;;;;;;12.40;10.40;;;;;;;-128.00;-1.00;-1.00;18854;296;7504719;-33
2023/06/25 00:14:55;;;;;;;16.80;8.80;;;;;;;-128.00;-1.00;-1.00;18880;307;7504470;-35
2023/06/25 00:17:21;;;;;;;17.40;9.70;;;;;;;-128.00;-1.00;-1.00;18486;348;7504624;-33
2023/06/25 00:19:48;;;;;;;12.20;8.20;;;;;;;-128.00;-1.00;-1.00;18501;347;7504862;-32
2023/06/25 00:22:14;;;;;;;14.50;9.20;;;;;;;-128.00;-1.00;-1.00;18471;296;7505311;-35
2023/06/25 00:24:40;;;;;;;11.40;9.50;;;;;;;-128.00;-1.00;-1.00;18449;348;7506306;-35
2023/06/25 00:27:06;;;;;;;12.70;8.30;;;;;;;-128.00;-1.00;-1.00;18484;297;7504504;-33
2023/06/25 00:29:35;;;;;;;10.70;7.80;;;;;;;-128.00;-1.00;-1.00;18463;296;7504723;-32
2023/06/25 00:32:00;;;;;;;13.40;9.30;;;;;;;-128.00;-1.00;-1.00;18463;287;7504596;-35
2023/06/25 00:34:26;;;;;;;15.10;8.90;;;;;;;-128.00;-1.00;-1.00;18463;296;7505995;-32
2023/06/25 01:18:39;;;;;;;17.70;11.70;;;;;;;-100.06;19.20;19959.58;19570;295;8045466;-32
2023/06/25 01:21:07;;;;;;;20.90;9.10;;;;;;;-128.00;-1.00;-1.00;18073;288;7504378;-36
2023/06/25 01:23:35;;;;;;;15.80;10.60;;;;;;;-128.00;-1.00;-1.00;18469;296;7504785;-36
2023/06/25 01:26:01;;;;;;;19.30;10.60;;;;;;;-128.00;-1.00;-1.00;18469;294;7504449;-36
2023/06/25 01:28:26;;;;;;;19.10;9.50;;;;;;;-128.00;-1.00;-1.00;18476;295;7504968;-35
2023/06/25 01:30:53;;;;;;;18.00;11.30;;;;;;;-128.00;-1.00;-1.00;18881;295;7504986;-31
2023/06/25 01:33:20;;;;;;;24.60;11.10;;;;;;;-128.00;-1.00;-1.00;18885;294;7504789;-35
2023/06/25 01:35:46;;;;;;;16.30;9.50;;;;;;;-128.00;-1.00;-1.00;18454;294;7506182;-34
2023/06/25 01:38:12;;;;;;;11.10;9.40;;;;;;;-128.00;-1.00;-1.00;18488;302;7504171;-35
2023/06/25 01:40:38;;;;;;;14.70;9.70;;;;;;;-128.00;-1.00;-1.00;18460;295;7506110;-31
2023/06/25 01:43:03;;;;;;;19.80;9.50;;;;;;;-128.00;-1.00;-1.00;18470;295;7504247;-32
2023/06/25 01:45:29;;;;;;;18.10;10.90;;;;;;;-128.00;-1.00;-1.00;18435;330;7506215;-32
2023/06/25 01:47:55;;;;;;;13.90;10.10;;;;;;;-128.00;-1.00;-1.00;18886;343;7505358;-32
2023/06/25 01:50:21;;;;;;;20.50;10.60;;;;;;;-128.00;-1.00;-1.00;18886;296;7504959;-35
2023/06/25 01:52:47;;;;;;;24.30;9.50;;;;;;;-128.00;-1.00;-1.00;18909;335;7504180;-35
2023/06/25 01:55:14;;;;;;;14.90;9.60;;;;;;;-128.00;-1.00;-1.00;18855;339;7504917;-33
2023/06/25 01:57:40;;;;;;;16.40;10.60;;;;;;;-128.00;-1.00;-1.00;18854;283;7504491;-33
2023/06/25 02:00:08;;;;;;;14.60;9.40;;;;;;;-128.00;-1.00;-1.00;18865;294;7505312;-32
2023/06/25 02:02:34;;;;;;;14.00;10.80;;;;;;;-128.00;-1.00;-1.00;18451;319;7506017;-36
2023/06/25 02:05:00;;;;;;;16.90;10.00;;;;;;;-128.00;-1.00;-1.00;18865;294;7504373;-33
2023/06/25 02:07:27;;;;;;;15.20;10.80;;;;;;;-128.00;-1.00;-1.00;18869;347;7504857;-37
2023/06/25 02:09:53;;;;;;;19.20;10.90;;;;;;;-128.00;-1.00;-1.00;18866;302;7505024;-33
2023/06/25 02:12:19;;;;;;;12.20;8.60;;;;;;;-128.00;-1.00;-1.00;18876;294;7504605;-36
2023/06/25 02:14:45;;;;;;;19.90;10.30;;;;;;;-128.00;-1.00;-1.00;18867;295;7504834;-33
2023/06/25 02:17:11;;;;;;;12.50;8.80;;;;;;;-128.00;-1.00;-1.00;18908;294;7504891;-35
2023/06/25 02:19:38;;;;;;;13.20;9.50;;;;;;;-128.00;-1.00;-1.00;18872;295;7504375;-32
2023/06/25 02:22:04;;;;;;;13.70;8.50;;;;;;;-128.00;-1.00;-1.00;18502;295;7506694;-36
2023/06/25 02:24:30;;;;;;;12.00;8.00;;;;;;;-128.00;-1.00;-1.00;18488;287;7504249;-35
2023/06/25 02:26:56;;;;;;;10.70;8.90;;;;;;;-128.00;-1.00;-1.00;18884;289;7504510;-36
2023/06/25 02:29:23;;;;;;;12.10;9.60;;;;;;;-128.00;-1.00;-1.00;18869;295;7504773;-36
2023/06/25 02:31:49;;;;;;;14.00;10.10;;;;;;;-128.00;-1.00;-1.00;18860;319;7504734;-33
2023/06/25 02:34:16;;;;;;;11.00;8.20;;;;;;;-128.00;-1.00;-1.00;18894;295;7504347;-32
2023/06/25 02:36:43;;;;;;;14.00;7.90;;;;;;;-128.00;-1.00;-1.00;18489;295;7504216;-35
2023/06/25 02:39:08;;;;;;;11.60;8.20;;;;;;;-128.00;-1.00;-1.00;18479;288;7504938;-33
2023/06/25 02:41:34;;;;;;;9.50;6.80;;;;;;;-128.00;-1.00;-1.00;18467;295;7505991;-36
2023/06/25 02:44:00;;;;;;;13.40;9.60;;;;;;;-128.00;-1.00;-1.00;18470;295;7504600;-33
2023/06/25 02:46:26;;;;;;;15.20;8.40;;;;;;;-128.00;-1.00;-1.00;18864;295;7505750;-35
2023/06/25 02:48:53;;;;;;;10.60;9.00;;;;;;;-128.00;-1.00;-1.00;18887;295;7504429;-36
2023/06/25 02:51:19;;;;;;;15.10;8.30;;;;;;;-128.00;-1.00;-1.00;18900;287;7504222;-33
2023/06/25 02:53:45;;;;;;;9.20;7.80;;;;;;;-128.00;-1.00;-1.00;18892;295;7504806;-33
2023/06/25 02:56:11;;;;;;;15.40;8.00;;;;;;;-128.00;-1.00;-1.00;18451;295;7505796;-37
2023/06/25 02:58:37;;;;;;;8.00;6.70;;;;;;;-128.00;-1.00;-1.00;18471;295;7506025;-38
2023/06/25 03:01:03;;;;;;;8.70;6.00;;;;;;;-128.00;-1.00;-1.00;18456;295;7505812;-36
2023/06/25 03:03:29;;;;;;;8.30;6.50;;;;;;;-128.00;-1.00;-1.00;18458;307;7506345;-33
2023/06/25 03:05:55;;;;;;;14.60;8.70;;;;;;;-128.00;-1.00;-1.00;18899;295;7504549;-33
2023/06/25 03:08:21;;;;;;;12.00;9.00;;;;;;;-128.00;-1.00;-1.00;18935;295;7504140;-33
2023/06/25 03:10:47;;;;;;;20.40;7.50;;;;;;;-128.00;-1.00;-1.00;18473;295;7504339;-36
2023/06/25 03:13:13;;;;;;;8.40;7.50;;;;;;;-128.00;-1.00;-1.00;18881;295;7504717;-36
2023/06/25 03:15:40;;;;;;;10.60;8.60;;;;;;;-128.00;-1.00;-1.00;18899;295;7504313;-36
2023/06/25 03:18:06;;;;;;;10.80;8.70;;;;;;;-128.00;-1.00;-1.00;18900;287;7504941;-36
2023/06/25 03:20:32;;;;;;;12.40;10.20;;;;;;;-128.00;-1.00;-1.00;18856;319;7505276;-33
2023/06/25 03:22:58;;;;;;;20.60;9.50;;;;;;;-128.00;-1.00;-1.00;18874;295;7505579;-33
2023/06/25 03:25:24;;;;;;;21.80;9.10;;;;;;;-128.00;-1.00;-1.00;18873;284;7504801;-34
2023/06/25 03:27:51;;;;;;;15.70;8.50;;;;;;;-128.00;-1.00;-1.00;18893;295;7505159;-32
2023/06/25 03:30:17;;;;;;;9.60;8.00;;;;;;;-128.00;-1.00;-1.00;18880;295;7504525;-34
2023/06/25 03:32:44;;;;;;;25.10;10.20;;;;;;;-128.00;-1.00;-1.00;18859;295;7505216;-35
2023/06/25 03:35:10;;;;;;;24.40;7.90;;;;;;;-128.00;-1.00;-1.00;18476;295;7504487;-35
2023/06/25 03:37:35;;;;;;;10.40;8.40;;;;;;;-128.00;-1.00;-1.00;18461;347;7504877;-35
2023/06/25 03:40:01;;;;;;;15.00;8.70;;;;;;;-128.00;-1.00;-1.00;18471;295;7505978;-32
2023/06/25 03:42:27;;;;;;;37.20;8.40;;;;;;;-128.00;-1.00;-1.00;18447;295;7504256;-32
2023/06/25 03:44:53;;;;;;;9.20;7.80;;;;;;;-128.00;-1.00;-1.00;18456;295;7506495;-35
2023/06/25 03:47:19;;;;;;;12.90;8.20;;;;;;;-128.00;-1.00;-1.00;18468;295;7504850;-35
2023/06/25 03:49:44;;;;;;;17.30;8.20;;;;;;;-128.00;-1.00;-1.00;18474;285;7504665;-32
2023/06/25 03:52:10;;;;;;;23.10;9.50;;;;;;;-128.00;-1.00;-1.00;18486;295;7505396;-32
2023/06/25 03:54:36;;;;;;;13.90;8.00;;;;;;;-128.00;-1.00;-1.00;18878;295;7505665;-36
2023/06/25 03:57:03;;;;;;;11.00;7.90;;;;;;;-128.00;-1.00;-1.00;18856;295;7504770;-35
2023/06/25 03:59:29;;;;;;;21.10;8.80;;;;;;;-128.00;-1.00;-1.00;18857;295;7504579;-32
2023/06/25 04:01:55;;;;;;;12.40;7.90;;;;;;;-128.00;-1.00;-1.00;18876;295;7505356;-36
2023/06/25 04:04:22;;;;;;;26.90;8.80;;;;;;;-128.00;-1.00;-1.00;18884;288;7504550;-35
2023/06/25 04:06:48;;;;;;;19.40;8.20;;;;;;;-128.00;-1.00;-1.00;18859;306;7505194;-36
2023/06/25 04:09:14;;;;;;;22.20;9.20;;;;;;;-128.00;-1.00;-1.00;18857;288;7504281;-32
2023/06/25 04:11:40;;;;;;;13.50;8.80;;;;;;;-128.00;-1.00;-1.00;18869;296;7506183;-37
2023/06/25 04:14:06;;;;;;;11.70;9.10;;;;;;;-128.00;-1.00;-1.00;18896;311;7504775;-31
2023/06/25 04:16:33;;;;;;;20.80;7.10;;;;;;;-128.00;-1.00;-1.00;18876;347;7504284;-32
2023/06/25 04:18:59;;;;;;;9.70;7.20;;;;;;;-128.00;-1.00;-1.00;18446;295;7504558;-32
2023/06/25 04:21:25;;;;;;;10.30;6.90;;;;;;;-128.00;-1.00;-1.00;18876;295;7504330;-35
2023/06/25 04:23:51;;;;;;;15.40;6.90;;;;;;;-128.00;-1.00;-1.00;18853;295;7504545;-32
2023/06/25 04:26:18;;;;;;;17.50;8.20;;;;;;;-128.00;-1.00;-1.00;18874;295;7505043;-32
2023/06/25 04:28:44;;;;;;;13.60;7.40;;;;;;;-128.00;-1.00;-1.00;18879;287;7504323;-35
2023/06/25 04:31:10;;;;;;;13.60;7.70;;;;;;;-128.00;-1.00;-1.00;18859;287;7504434;-36
2023/06/25 04:33:41;;;;;;;8.50;6.60;;;;;;;-128.00;-1.00;-1.00;18884;285;7504724;-35
2023/06/25 04:36:08;;;;;;;9.10;6.20;;;;;;;-128.00;-1.00;-1.00;18452;295;7506198;-32
2023/06/25 04:38:33;;;;;;;6.80;6.20;;;;;;;-128.00;-1.00;-1.00;18474;295;7504756;-35
2023/06/25 04:41:00;;;;;;;11.10;7.60;;;;;;;-128.00;-1.00;-1.00;18900;296;7504779;-37
2023/06/25 04:43:26;;;;;;;7.00;5.70;;;;;;;-128.00;-1.00;-1.00;18487;295;7505239;-34
2023/06/25 04:45:51;;;;;;;10.60;6.70;;;;;;;-128.00;-1.00;-1.00;18474;295;7506239;-33
2023/06/25 04:48:17;;;;;;;9.60;7.00;;;;;;;-128.00;-1.00;-1.00;18472;296;7506240;-32
2023/06/25 04:50:43;;;;;;;11.80;4.80;;;;;;;-128.00;-1.00;-1.00;18454;295;7505111;-32
2023/06/25 04:53:09;;;;;;;17.00;5.60;;;;;;;-128.00;-1.00;-1.00;18467;307;7504458;-36
2023/06/25 04:55:34;;;;;;;10.50;6.10;;;;;;;-128.00;-1.00;-1.00;18475;295;7504454;-36
2023/06/25 04:58:00;;;;;;;6.20;5.60;;;;;;;-128.00;-1.00;-1.00;18450;288;7506023;-33
2023/06/25 05:00:25;;;;;;;13.30;6.50;;;;;;;-128.00;-1.00;-1.00;18458;330;7504364;-32
2023/06/25 05:02:52;;;;;;;17.90;6.10;;;;;;;-128.00;-1.00;-1.00;18889;295;7504751;-32
2023/06/25 05:05:18;;;;;;;12.30;7.20;;;;;;;-128.00;-1.00;-1.00;18890;288;7505004;-36
2023/06/25 05:07:44;;;;;;;11.50;5.80;;;;;;;-128.00;-1.00;-1.00;18855;303;7504322;-36
2023/06/25 05:10:10;;;;;;;9.10;5.90;;;;;;;-128.00;-1.00;-1.00;18899;284;7504412;-36
2023/06/25 05:12:37;;;;;;;10.80;6.70;;;;;;;-128.00;-1.00;-1.00;18895;295;7505030;-32
2023/06/25 05:15:03;;;;;;;7.40;6.30;;;;;;;-128.00;-1.00;-1.00;18885;295;7504392;-35
2023/06/25 05:17:30;;;;;;;9.60;6.20;;;;;;;-128.00;-1.00;-1.00;18469;295;7504580;-32
2023/06/25 05:19:55;;;;;;;8.00;7.10;;;;;;;-128.00;-1.00;-1.00;18461;288;7504232;-31
2023/06/25 05:22:21;;;;;;;6.80;6.10;;;;;;;-128.00;-1.00;-1.00;18477;340;7504517;-31
2023/06/25 05:24:47;;;;;;;11.10;6.60;;;;;;;-128.00;-1.00;-1.00;18872;295;7506006;-33
2023/06/25 05:27:13;;;;;;;9.60;7.40;;;;;;;-128.00;-1.00;-1.00;18843;296;7504491;-31
2023/06/25 05:29:39;;;;;;;9.80;7.90;;;;;;;-128.00;-1.00;-1.00;18878;295;7505117;-35
2023/06/25 05:32:06;;;;;;;6.40;5.00;;;;;;;-128.00;-1.00;-1.00;18870;288;7504204;-32
2023/06/25 05:34:32;;;;;;;11.90;7.20;;;;;;;-128.00;-1.00;-1.00;18872;295;7505879;-32
2023/06/25 05:36:58;;;;;;;8.40;5.30;;;;;;;-128.00;-1.00;-1.00;18848;288;7506091;-35
2023/06/25 05:39:28;;;;;;;9.10;5.50;;;;;;;-128.00;-1.00;-1.00;18888;339;7504314;-33
2023/06/25 05:41:57;;;;;;;6.50;5.80;;;;;;;-128.00;-1.00;-1.00;18490;288;7504416;-32
2023/06/25 05:44:22;;;;;;;9.30;6.30;;;;;;;-128.00;-1.00;-1.00;18501;288;7504250;-36
2023/06/25 05:46:48;;;;;;;9.50;5.90;;;;;;;-128.00;-1.00;-1.00;18887;295;7505283;-36
2023/06/25 05:49:15;;;;;;;12.80;7.60;;;;;;;-128.00;-1.00;-1.00;18891;288;7504899;-33
2023/06/25 05:51:41;;;;;;;10.20;6.80;;;;;;;-128.00;-1.00;-1.00;18881;295;7505309;-36
2023/06/25 05:54:07;;;;;;;14.30;7.90;;;;;;;-128.00;-1.00;-1.00;18892;318;7504590;-34
2023/06/25 05:56:33;;;;;;;13.80;7.60;;;;;;;-128.00;-1.00;-1.00;18889;295;7504540;-35
2023/06/25 05:58:59;;;;;;;7.20;6.40;;;;;;;-128.00;-1.00;-1.00;18859;347;7504662;-36
2023/06/25 06:01:26;;;;;;;8.60;6.10;;;;;;;-128.00;-1.00;-1.00;18872;295;7504454;-33
2023/06/25 06:03:52;;;;;;;10.70;6.40;;;;;;;-128.00;-1.00;-1.00;18865;311;7505461;-36
2023/06/25 06:06:18;;;;;;;6.00;4.50;;;;;;;-128.00;-1.00;-1.00;18476;319;7507171;-33
2023/06/25 06:08:43;;;;;;;4.40;4.00;;;;;;;-128.00;-1.00;-1.00;18476;295;7505891;-36
2023/06/25 06:11:10;;;;;;;6.90;6.10;;;;;;;-128.00;-1.00;-1.00;18492;295;7504735;-35
2023/06/25 06:13:39;;;;;;;5.70;4.20;;;;;;;-128.00;-1.00;-1.00;18456;287;7507661;-34
2023/06/25 06:16:04;;;;;;;3.90;3.40;;;;;;;-128.00;-1.00;-1.00;18487;295;7504283;-35
2023/06/25 06:18:30;;;;;;;6.00;5.50;;;;;;;-128.00;-1.00;-1.00;18476;295;7504285;-35
2023/06/25 06:20:56;;;;;;;9.80;6.00;;;;;;;-128.00;-1.00;-1.00;18869;295;7504449;-35
2023/06/25 06:23:24;;;;;;;8.10;6.70;;;;;;;-128.00;-1.00;-1.00;18884;295;7504248;-35
2023/06/25 06:25:49;;;;;;;15.00;4.10;;;;;;;-128.00;-1.00;-1.00;18487;287;7505718;-35
2023/06/25 06:28:15;;;;;;;8.50;5.40;;;;;;;-128.00;-1.00;-1.00;18900;347;7504351;-32
2023/06/25 06:30:42;;;;;;;6.50;5.90;;;;;;;-128.00;-1.00;-1.00;18858;319;7505187;-32
2023/06/25 06:33:08;;;;;;;7.20;4.60;;;;;;;-128.00;-1.00;-1.00;18866;295;7506148;-32
2023/06/25 06:35:34;;;;;;;7.00;5.40;;;;;;;-128.00;-1.00;-1.00;18877;295;7504453;-32
2023/06/25 06:38:01;;;;;;;7.20;3.90;;;;;;;-128.00;-1.00;-1.00;18892;295;7505454;-31
2023/06/25 06:40:27;;;;;;;4.70;3.90;;;;;;;-128.00;-1.00;-1.00;18877;287;7505253;-32
2023/06/25 06:42:53;;;;;;;11.10;5.10;;;;;;;-128.00;-1.00;-1.00;18890;295;7504409;-32
2023/06/25 06:45:19;;;;;;;4.50;4.00;;;;;;;-128.00;-1.00;-1.00;18902;295;7504458;-32
2023/06/25 06:47:46;;;;;;;4.30;3.90;;;;;;;-128.00;-1.00;-1.00;18880;335;7504821;-32
2023/06/25 06:50:12;;;;;;;4.00;3.20;;;;;;;-128.00;-1.00;-1.00;18859;288;7506247;-32
2023/06/25 06:52:38;;;;;;;8.90;3.30;;;;;;;-128.00;-1.00;-1.00;18868;295;7504810;-33
2023/06/25 06:55:05;;;;;;;6.00;3.70;;;;;;;-128.00;-1.00;-1.00;18864;288;7505119;-32
2023/06/25 06:57:30;;;;;;;9.40;3.40;;;;;;;-128.00;-1.00;-1.00;18477;336;7504918;-36
2023/06/25 06:59:56;;;;;;;4.50;3.30;;;;;;;-128.00;-1.00;-1.00;18457;295;7506051;-36
2023/06/25 07:02:22;;;;;;;3.80;3.00;;;;;;;-128.00;-1.00;-1.00;18448;347;7506107;-35
2023/06/25 07:04:48;;;;;;;9.70;3.10;;;;;;;-128.00;-1.00;-1.00;18872;295;7504600;-32
2023/06/25 07:07:14;;;;;;;2.80;2.40;;;;;;;-128.00;-1.00;-1.00;18872;295;7506144;-33
2023/06/25 07:09:49;;;;;;;3.60;2.50;;;;;;;-128.00;-1.00;-1.00;18857;295;7505267;-36
2023/06/25 07:12:15;;;;;;;4.20;3.20;;;;;;;-128.00;-1.00;-1.00;18484;295;7504570;-33
2023/06/25 07:14:41;;;;;;;6.40;2.80;;;;;;;-128.00;-1.00;-1.00;18869;295;7505072;-32
2023/06/25 07:17:08;;;;;;;8.70;3.30;;;;;;;-128.00;-1.00;-1.00;18873;295;7504641;-36
2023/06/25 07:19:33;;;;;;;3.20;2.40;;;;;;;-128.00;-1.00;-1.00;18468;295;7504452;-36
2023/06/25 07:22:00;;;;;;;5.10;2.90;;;;;;;-128.00;-1.00;-1.00;18895;295;7504620;-36
2023/06/25 07:24:26;;;;;;;3.50;2.60;;;;;;;-128.00;-1.00;-1.00;18901;347;7504824;-36
2023/06/25 07:26:52;;;;;;;3.00;2.40;;;;;;;-128.00;-1.00;-1.00;18881;288;7504907;-36
2023/06/25 07:29:18;;;;;;;3.10;2.40;;;;;;;-128.00;-1.00;-1.00;18884;319;7505799;-35
2023/06/25 07:31:44;;;;;;;2.50;2.20;;;;;;;-128.00;-1.00;-1.00;18853;295;7504324;-35
2023/06/25 07:34:11;;;;;;;5.40;2.50;;;;;;;-128.00;-1.00;-1.00;18880;283;7505156;-33
2023/06/25 07:36:37;;;;;;;3.80;1.70;;;;;;;-128.00;-1.00;-1.00;18867;308;7505315;-36
2023/06/25 07:39:03;;;;;;;2.30;1.20;;;;;;;-128.00;-1.00;-1.00;18886;308;7504566;-33
2023/06/25 07:41:30;;;;;;;1.70;1.40;;;;;;;-128.00;-1.00;-1.00;18908;295;7506059;-36
2023/06/25 07:43:56;;;;;;;3.00;1.70;;;;;;;-128.00;-1.00;-1.00;18871;295;7505291;-35
2023/06/25 07:46:23;;;;;;;2.90;2.00;;;;;;;-128.00;-1.00;-1.00;18859;295;7505636;-32
2023/06/25 07:48:48;;;;;;;2.40;1.80;;;;;;;-128.00;-1.00;-1.00;18478;295;7504185;-32
2023/06/25 07:51:14;;;;;;;1.10;1.00;;;;;;;-128.00;-1.00;-1.00;18464;295;7504542;-36
2023/06/25 07:53:40;;;;;;;2.10;1.60;;;;;;;-128.00;-1.00;-1.00;18487;311;7504989;-36
2023/06/25 07:56:06;;;;;;;2.00;1.80;;;;;;;-128.00;-1.00;-1.00;18887;315;7505533;-35
2023/06/25 07:58:33;;;;;;;2.00;1.30;;;;;;;-128.00;-1.00;-1.00;18883;295;7504568;-36
2023/06/25 08:00:59;;;;;;;2.00;1.80;;;;;;;-128.00;-1.00;-1.00;18466;296;7504780;-35
2023/06/25 08:03:25;;;;;;;1.50;1.20;;;;;;;-128.00;-1.00;-1.00;18473;319;7506279;-32
2023/06/25 08:05:51;;;;;;;2.60;1.30;;;;;;;-128.00;-1.00;-1.00;18448;295;7504736;-36
2023/06/25 08:08:17;;;;;;;3.10;2.30;;;;;;;-128.00;-1.00;-1.00;18470;295;7504933;-35
2023/06/25 08:10:42;;;;;;;19.50;2.10;;;;;;;-128.00;-1.00;-1.00;18432;295;7506970;-32
2023/06/25 08:13:08;;;;;;;5.30;1.50;;;;;;;-128.00;-1.00;-1.00;18864;295;7505437;-32
2023/06/25 08:15:34;;;;;;;4.70;1.70;;;;;;;-128.00;-1.00;-1.00;18867;295;7504484;-34
2023/06/25 08:18:01;;;;;;;7.80;1.50;;;;;;;-128.00;-1.00;-1.00;18892;295;7505082;-32
2023/06/25 08:20:27;;;;;;;2.60;1.40;;;;;;;-128.00;-1.00;-1.00;18884;288;7504517;-32
2023/06/25 08:22:53;;;;;;;2.50;1.80;;;;;;;-128.00;-1.00;-1.00;18868;295;7504850;-33
2023/06/25 08:25:21;;;;;;;3.10;1.50;;;;;;;-128.00;-1.00;-1.00;18837;295;7504925;-36
2023/06/25 08:27:46;;;;;;;1.60;1.20;;;;;;;-128.00;-1.00;-1.00;18471;296;7504538;-32
2023/06/25 08:30:12;;;;;;;1.70;1.50;;;;;;;-128.00;-1.00;-1.00;18468;287;7505248;-33
2023/06/25 08:32:38;;;;;;;1.50;1.20;;;;;;;-128.00;-1.00;-1.00;18447;295;7505796;-35
2023/06/25 08:35:04;;;;;;;1.80;1.40;;;;;;;-128.00;-1.00;-1.00;18478;347;7504374;-36
2023/06/25 08:37:29;;;;;;;1.80;1.20;;;;;;;-128.00;-1.00;-1.00;18463;335;7504311;-36
2023/06/25 08:39:55;;;;;;;2.20;1.50;;;;;;;-128.00;-1.00;-1.00;18889;295;7505475;-37
2023/06/25 08:42:21;;;;;;;1.80;1.50;;;;;;;-128.00;-1.00;-1.00;18850;288;7504842;-33
2023/06/25 08:44:48;;;;;;;1.30;1.20;;;;;;;-128.00;-1.00;-1.00;18867;288;7504047;-33
2023/06/25 08:47:18;;;;;;;2.00;1.60;;;;;;;-128.00;-1.00;-1.00;18866;295;7504379;-36
2023/06/25 08:49:43;;;;;;;2.30;2.10;;;;;;;-128.00;-1.00;-1.00;18482;289;7504997;-32
2023/06/25 08:52:09;;;;;;;2.10;1.70;;;;;;;-128.00;-1.00;-1.00;18470;295;7504470;-33
2023/06/25 08:54:35;;;;;;;2.40;1.60;;;;;;;-128.00;-1.00;-1.00;18883;295;7504466;-32
2023/06/25 08:57:01;;;;;;;4.30;2.20;;;;;;;-128.00;-1.00;-1.00;18895;295;7504622;-32
2023/06/25 08:59:28;;;;;;;3.80;1.90;;;;;;;-128.00;-1.00;-1.00;18875;288;7507080;-33
2023/06/25 09:01:54;;;;;;;1.90;1.40;;;;;;;-128.00;-1.00;-1.00;18889;295;7505297;-36
2023/06/25 09:04:20;;;;;;;2.30;1.50;;;;;;;-128.00;-1.00;-1.00;18853;318;7504179;-34
2023/06/25 09:06:46;;;;;;;2.50;1.60;;;;;;;-128.00;-1.00;-1.00;18896;287;7505241;-32
2023/06/25 09:09:12;;;;;;;2.50;2.00;;;;;;;-128.00;-1.00;-1.00;18887;299;7505210;-35
2023/06/25 09:11:40;;;;;;;3.10;2.30;;;;;;;-128.00;-1.00;-1.00;18867;295;7504144;-35
2023/06/25 09:14:06;;;;;;;1.40;1.10;;;;;;;-128.00;-1.00;-1.00;18508;295;7504362;-35
2023/06/25 09:16:32;;;;;;;1.60;1.50;;;;;;;-128.00;-1.00;-1.00;18468;335;7504289;-35
2023/06/25 09:19:01;;;;;;;2.60;1.50;;;;;;;-128.00;-1.00;-1.00;18479;288;7506106;-31
2023/06/25 09:21:36;;;;;;;1.40;1.00;;;;;;;-128.00;-1.00;-1.00;18170;284;8238206;-35
2023/06/25 09:24:13;;;;;;;1.90;1.60;;;;;;;-128.00;-1.00;-1.00;18480;296;7504334;-35
2023/06/25 09:26:46;;;;;;;2.80;1.00;;;;;;;-128.00;-1.00;-1.00;18467;295;7504628;-32
2023/06/25 09:29:12;;;;;;;2.80;1.60;;;;;;;-128.00;-1.00;-1.00;18478;299;7504421;-32
2023/06/25 09:31:40;;;;;;;1.30;1.00;;;;;;;-128.00;-1.00;-1.00;18452;295;7504576;-33
2023/06/25 09:34:06;;;;;;;2.50;1.20;;;;;;;-128.00;-1.00;-1.00;18450;295;7504539;-35
2023/06/25 09:36:33;;;;;;;2.50;2.00;;;;;;;-128.00;-1.00;-1.00;18453;295;7504742;-35
2023/06/25 09:38:59;;;;;;;1.60;1.50;;;;;;;-128.00;-1.00;-1.00;18473;295;7504787;-35
2023/06/25 09:41:25;;;;;;;0.90;0.80;;;;;;;-128.00;-1.00;-1.00;18469;295;7504687;-32
2023/06/25 09:43:53;;;;;;;3.90;1.40;;;;;;;-128.00;-1.00;-1.00;18479;287;7504545;-35
2023/06/25 09:46:19;;;;;;;1.70;1.30;;;;;;;-128.00;-1.00;-1.00;18463;289;7504502;-35
2023/06/25 09:48:44;;;;;;;1.80;1.20;;;;;;;-128.00;-1.00;-1.00;18480;285;7504278;-37
2023/06/25 09:51:11;;;;;;;1.30;1.00;;;;;;;-128.00;-1.00;-1.00;18886;330;7505144;-33
2023/06/25 09:53:37;;;;;;;1.90;1.40;;;;;;;-128.00;-1.00;-1.00;18914;295;7506088;-32
2023/06/25 09:56:04;;;;;;;1.60;1.30;;;;;;;-128.00;-1.00;-1.00;18847;295;7505345;-35
2023/06/25 09:58:30;;;;;;;1.80;1.60;;;;;;;-128.00;-1.00;-1.00;18892;295;7504135;-33
2023/06/25 10:00:56;;;;;;;2.90;1.60;;;;;;;-128.00;-1.00;-1.00;18884;295;7505334;-36
2023/06/25 10:03:22;;;;;;;2.70;1.80;;;;;;;-128.00;-1.00;-1.00;18861;295;7504611;-32
2023/06/25 10:05:51;;;;;;;2.10;1.60;;;;;;;-128.00;-1.00;-1.00;18868;295;7504844;-36
2023/06/25 10:08:19;;;;;;;2.60;1.80;;;;;;;-128.00;-1.00;-1.00;18448;295;7506243;-35
2023/06/25 10:10:57;;;;;;;3.10;1.30;;;;;;;-128.00;-1.00;-1.00;18440;295;7506459;-32
2023/06/25 10:13:23;;;;;;;3.00;1.60;;;;;;;-128.00;-1.00;-1.00;18479;295;7504588;-32
2023/06/25 10:15:48;;;;;;;2.20;1.50;;;;;;;-128.00;-1.00;-1.00;18452;318;7505835;-36
2023/06/25 10:18:22;;;;;;;2.10;1.90;;;;;;;-128.00;-1.00;-1.00;18495;295;7506481;-36
2023/06/25 10:20:47;;;;;;;1.30;1.00;;;;;;;-128.00;-1.00;-1.00;18458;295;7504448;-32
2023/06/25 10:23:13;;;;;;;8.80;1.40;;;;;;;-128.00;-1.00;-1.00;18468;296;7504904;-36
2023/06/25 10:25:40;;;;;;;1.80;1.20;;;;;;;-128.00;-1.00;-1.00;18481;288;7505597;-32
2023/06/25 10:28:14;;;;;;;2.80;2.50;;;;;;;-128.00;-1.00;-1.00;18488;295;7505445;-36
2023/06/25 10:30:45;;;;;;;1.40;1.30;;;;;;;-128.00;-1.00;-1.00;18481;295;7504289;-32
2023/06/25 10:33:14;;;;;;;1.70;1.50;;;;;;;-128.00;-1.00;-1.00;18497;288;7504383;-36
2023/06/25 10:35:40;;;;;;;1.50;1.10;;;;;;;-128.00;-1.00;-1.00;18493;330;7504521;-36
2023/06/25 10:38:06;;;;;;;16.10;2.50;;;;;;;-128.00;-1.00;-1.00;18447;288;7504350;-33
2023/06/25 10:40:34;;;;;;;3.50;1.80;;;;;;;-128.00;-1.00;-1.00;18469;335;7504586;-32
2023/06/25 10:43:00;;;;;;;1.90;1.40;;;;;;;-128.00;-1.00;-1.00;18463;295;7505065;-33
2023/06/25 10:45:26;;;;;;;1.90;1.50;;;;;;;-128.00;-1.00;-1.00;18483;295;7504344;-32
2023/06/25 10:48:05;;;;;;;2.20;1.70;;;;;;;-128.00;-1.00;-1.00;18450;314;7506233;-32
2023/06/25 10:50:32;;;;;;;1.60;1.50;;;;;;;-128.00;-1.00;-1.00;18498;295;7505945;-35
2023/06/25 10:52:58;;;;;;;2.20;1.20;;;;;;;-128.00;-1.00;-1.00;18467;295;7504894;-32
2023/06/25 10:55:25;;;;;;;2.20;1.20;;;;;;;-128.00;-1.00;-1.00;18485;288;7504641;-32
2023/06/25 10:57:53;;;;;;;1.70;1.60;;;;;;;-128.00;-1.00;-1.00;18486;288;7504300;-32
2023/06/25 11:00:23;;;;;;;2.70;1.70;;;;;;;-128.00;-1.00;-1.00;18474;295;7505002;-37
2023/06/25 11:02:51;;;;;;;0.70;0.60;;;;;;;-128.00;-1.00;-1.00;18461;287;7505167;-37
2023/06/25 11:05:16;;;;;;;2.00;1.20;;;;;;;-128.00;-1.00;-1.00;18456;295;7504308;-31
2023/06/25 11:07:42;;;;;;;1.40;1.10;;;;;;;-128.00;-1.00;-1.00;18476;295;7505817;-35
2023/06/25 11:10:08;;;;;;;3.10;1.60;;;;;;;-128.00;-1.00;-1.00;18446;295;7504497;-31
2023/06/25 11:12:34;;;;;;;1.80;1.50;;;;;;;-128.00;-1.00;-1.00;18446;295;7506024;-31
2023/06/25 11:14:59;;;;;;;2.30;1.60;;;;;;;-128.00;-1.00;-1.00;18468;287;7505366;-35
2023/06/25 11:17:26;;;;;;;1.70;1.40;;;;;;;-128.00;-1.00;-1.00;18864;295;7504709;-36
2023/06/25 11:19:53;;;;;;;3.90;2.50;;;;;;;-128.00;-1.00;-1.00;18882;295;7505872;-32
2023/06/25 11:22:19;;;;;;;2.30;2.00;;;;;;;-128.00;-1.00;-1.00;18453;311;7505104;-35
2023/06/25 11:24:45;;;;;;;2.80;2.00;;;;;;;-128.00;-1.00;-1.00;18467;323;7505872;-35
2023/06/25 11:27:11;;;;;;;3.10;1.80;;;;;;;-128.00;-1.00;-1.00;18872;295;7505243;-35
2023/06/25 11:29:39;;;;;;;2.30;1.80;;;;;;;-128.00;-1.00;-1.00;18874;296;7504348;-35
2023/06/25 11:32:07;;;;;;;1.90;1.60;;;;;;;-128.00;-1.00;-1.00;18498;295;7506471;-31
2023/06/25 11:34:33;;;;;;;1.70;1.60;;;;;;;-128.00;-1.00;-1.00;18479;295;7506712;-35
2023/06/25 11:37:11;;;;;;;1.90;1.10;;;;;;;-128.00;-1.00;-1.00;18454;295;7505346;-32
2023/06/25 11:39:48;;;;;;;2.20;1.80;;;;;;;-128.00;-1.00;-1.00;18472;296;7506272;-32
2023/06/25 11:42:15;;;;;;;1.60;1.10;;;;;;;-128.00;-1.00;-1.00;18468;295;7504675;-36
2023/06/25 11:44:40;;;;;;;6.30;1.50;;;;;;;-128.00;-1.00;-1.00;18471;295;7505095;-32
2023/06/25 11:47:06;;;;;;;5.50;1.40;;;;;;;-128.00;-1.00;-1.00;18908;336;7504400;-32
2023/06/25 11:49:33;;;;;;;9.50;2.10;;;;;;;-128.00;-1.00;-1.00;18869;295;7506811;-32
2023/06/25 11:51:59;;;;;;;2.10;1.70;;;;;;;-128.00;-1.00;-1.00;18894;295;7504449;-35
2023/06/25 11:54:25;;;;;;;2.50;1.80;;;;;;;-128.00;-1.00;-1.00;18894;295;7504631;-31
2023/06/25 11:56:51;;;;;;;1.60;1.30;;;;;;;-128.00;-1.00;-1.00;18859;296;7504897;-31
2023/06/25 11:59:18;;;;;;;2.40;1.90;;;;;;;-128.00;-1.00;-1.00;18875;287;7504940;-32
2023/06/25 12:01:44;;;;;;;5.20;1.90;;;;;;;-128.00;-1.00;-1.00;18869;318;7507189;-36
2023/06/25 12:04:10;;;;;;;1.30;1.20;;;;;;;-128.00;-1.00;-1.00;18890;296;7504375;-36
2023/06/25 12:06:36;;;;;;;2.60;2.30;;;;;;;-128.00;-1.00;-1.00;18868;295;7504304;-36